createdAt,value
2017-12-03T00:00:04.987Z,19.30
2017-12-03T00:02:32.509Z,19.30
2017-12-03T00:05:00.963Z,19.30
2017-12-03T00:07:28.487Z,19.40
2017-12-03T00:09:56.761Z,19.40
2017-12-03T00:12:25.053Z,19.40
2017-12-03T00:14:53.317Z,19.40
2017-12-03T00:17:21.594Z,19.40
2017-12-03T00:19:49.865Z,19.40
2017-12-03T00:22:17.366Z,19.40
2017-12-03T00:24:44.885Z,19.40
2017-12-03T00:27:13.157Z,19.40
2017-12-03T00:29:41.445Z,19.50
2017-12-03T00:32:08.950Z,19.50
2017-12-03T00:34:36.472Z,19.50
2017-12-03T00:37:03.963Z,19.50
2017-12-03T00:39:31.504Z,19.50
2017-12-03T00:41:59.005Z,19.50
2017-12-03T00:44:26.530Z,19.50
2017-12-03T00:46:54.018Z,19.50
2017-12-03T00:49:21.518Z,19.60
2017-12-03T00:51:49.937Z,19.60
2017-12-03T00:54:17.458Z,19.50
2017-12-03T00:56:44.953Z,19.40
2017-12-03T00:59:12.475Z,19.40
2017-12-03T01:01:39.969Z,19.30
2017-12-03T01:04:07.489Z,19.30
2017-12-03T01:06:34.985Z,19.20
2017-12-03T01:09:03.457Z,19.10
2017-12-03T01:11:30.953Z,19.10
2017-12-03T01:13:59.245Z,19.00
2017-12-03T01:16:27.669Z,19.00
2017-12-03T01:18:55.185Z,18.90
2017-12-03T01:21:22.685Z,18.80
2017-12-03T01:23:50.204Z,18.80
2017-12-03T01:26:17.701Z,18.70
2017-12-03T01:28:45.290Z,18.70
2017-12-03T01:31:13.594Z,18.60
2017-12-03T01:33:41.090Z,18.60
2017-12-03T01:36:08.608Z,18.60
2017-12-03T01:38:36.122Z,18.50
2017-12-03T01:41:03.634Z,18.50
2017-12-03T01:43:31.121Z,18.50
2017-12-03T01:45:58.668Z,18.50
2017-12-03T01:48:26.173Z,18.40
2017-12-03T01:50:54.432Z,18.40
2017-12-03T01:53:22.717Z,18.40
2017-12-03T01:55:50.973Z,18.40
2017-12-03T01:58:20.432Z,18.40
2017-12-03T02:00:47.931Z,18.40
2017-12-03T02:03:15.461Z,18.40
2017-12-03T02:05:42.958Z,18.40
2017-12-03T02:08:11.246Z,18.40
2017-12-03T02:10:39.510Z,18.30
2017-12-03T02:13:07.783Z,18.30
2017-12-03T02:15:36.069Z,18.30
2017-12-03T02:18:04.329Z,18.30
2017-12-03T02:20:32.613Z,18.30
2017-12-03T02:23:00.878Z,18.30
2017-12-03T02:25:29.165Z,18.30
2017-12-03T02:27:57.428Z,18.20
2017-12-03T02:30:25.713Z,18.30
2017-12-03T02:32:53.969Z,18.20
2017-12-03T02:35:22.405Z,18.20
2017-12-03T02:37:49.929Z,18.20
2017-12-03T02:40:17.430Z,18.20
2017-12-03T02:42:46.909Z,18.20
2017-12-03T02:45:14.410Z,18.20
2017-12-03T02:47:41.934Z,18.20
2017-12-03T02:50:09.427Z,18.20
2017-12-03T02:52:38.877Z,18.20
2017-12-03T02:55:06.369Z,18.20
2017-12-03T02:57:33.866Z,18.20
2017-12-03T03:00:02.153Z,18.20
2017-12-03T03:02:29.657Z,18.10
2017-12-03T03:04:57.188Z,18.20
2017-12-03T03:07:24.686Z,18.20
2017-12-03T03:09:52.209Z,18.20
2017-12-03T03:12:19.705Z,18.20
2017-12-03T03:14:47.225Z,18.20
2017-12-03T03:17:14.812Z,18.20
2017-12-03T03:19:42.305Z,18.20
2017-12-03T03:22:11.520Z,18.20
2017-12-03T03:24:39.017Z,18.10
2017-12-03T03:27:06.538Z,18.20
2017-12-03T03:29:34.038Z,18.20
2017-12-03T03:32:01.557Z,18.20
2017-12-03T03:34:29.989Z,18.20
2017-12-03T03:36:57.501Z,18.20
2017-12-03T03:39:24.997Z,18.20
2017-12-03T03:41:52.484Z,18.20
2017-12-03T03:44:20.761Z,18.20
2017-12-03T03:46:48.252Z,18.20
2017-12-03T03:49:15.773Z,18.20
2017-12-03T03:51:44.245Z,18.30
2017-12-03T03:54:12.525Z,18.30
2017-12-03T03:56:41.724Z,18.20
2017-12-03T03:59:09.241Z,18.20
2017-12-03T04:01:36.735Z,18.30
2017-12-03T04:04:04.996Z,18.30
2017-12-03T04:06:33.293Z,18.30
2017-12-03T04:09:00.792Z,18.30
2017-12-03T04:11:28.308Z,18.30
2017-12-03T04:13:55.809Z,18.30
2017-12-03T04:16:23.403Z,18.30
2017-12-03T04:18:51.657Z,18.30
2017-12-03T04:21:19.151Z,18.30
2017-12-03T04:23:46.669Z,18.30
2017-12-03T04:26:14.166Z,18.30
2017-12-03T04:28:41.801Z,18.30
2017-12-03T04:31:09.290Z,18.40
2017-12-03T04:33:36.805Z,18.40
2017-12-03T04:36:04.305Z,18.40
2017-12-03T04:38:31.829Z,18.40
2017-12-03T04:40:59.325Z,18.40
2017-12-03T04:43:26.821Z,18.40
2017-12-03T04:45:54.341Z,18.40
2017-12-03T04:48:22.638Z,18.40
2017-12-03T04:50:50.153Z,18.40
2017-12-03T04:53:17.641Z,18.40
2017-12-03T04:55:45.161Z,18.40
2017-12-03T04:58:13.425Z,18.40
2017-12-03T05:00:41.712Z,18.40
2017-12-03T05:03:09.973Z,18.40
2017-12-03T05:05:38.233Z,18.40
2017-12-03T05:08:05.758Z,18.40
2017-12-03T05:10:33.260Z,18.50
2017-12-03T05:13:01.540Z,18.50
2017-12-03T05:15:29.801Z,18.50
2017-12-03T05:17:58.093Z,18.50
2017-12-03T05:20:26.353Z,18.50
2017-12-03T05:22:54.660Z,18.50
2017-12-03T05:25:22.153Z,18.50
2017-12-03T05:27:49.649Z,18.50
2017-12-03T05:30:17.930Z,18.60
2017-12-03T05:32:46.196Z,18.50
2017-12-03T05:35:13.713Z,18.50
2017-12-03T05:37:41.209Z,18.60
2017-12-03T05:40:08.728Z,18.60
2017-12-03T05:42:36.226Z,18.50
2017-12-03T05:45:04.485Z,18.60
2017-12-03T05:47:32.005Z,18.50
2017-12-03T05:49:59.497Z,18.60
2017-12-03T05:52:27.010Z,18.60
2017-12-03T05:54:54.509Z,18.60
2017-12-03T05:57:22.818Z,18.60
2017-12-03T05:59:51.081Z,18.60
2017-12-03T06:02:19.341Z,18.60
2017-12-03T06:04:46.854Z,18.60
2017-12-03T06:07:14.344Z,18.60
2017-12-03T06:09:41.861Z,18.60
2017-12-03T06:12:09.362Z,18.60
2017-12-03T06:14:39.745Z,18.60
2017-12-03T06:17:08.177Z,18.60
2017-12-03T06:19:35.680Z,18.60
2017-12-03T06:22:03.203Z,18.60
2017-12-03T06:24:31.465Z,18.70
2017-12-03T06:26:58.985Z,18.60
2017-12-03T06:29:26.481Z,18.70
2017-12-03T06:31:53.993Z,18.60
2017-12-03T06:34:21.489Z,18.70
2017-12-03T06:36:49.940Z,18.70
2017-12-03T06:39:17.452Z,18.70
2017-12-03T06:41:44.950Z,18.70
2017-12-03T06:44:12.469Z,18.70
2017-12-03T06:46:40.953Z,18.70
2017-12-03T06:49:08.473Z,18.70
2017-12-03T06:51:35.965Z,18.70
2017-12-03T06:54:04.441Z,18.70
2017-12-03T06:56:31.962Z,18.70
2017-12-03T06:58:59.453Z,18.70
2017-12-03T07:01:27.742Z,18.70
2017-12-03T07:03:55.228Z,18.70
2017-12-03T07:06:22.749Z,18.70
2017-12-03T07:08:50.252Z,18.70
2017-12-03T07:11:18.716Z,18.70
2017-12-03T07:13:46.239Z,18.70
2017-12-03T07:16:13.753Z,18.70
2017-12-03T07:18:41.276Z,18.70
2017-12-03T07:21:08.774Z,18.70
2017-12-03T07:23:36.288Z,18.70
2017-12-03T07:26:03.791Z,18.70
2017-12-03T07:28:32.065Z,18.70
2017-12-03T07:31:02.293Z,18.80
2017-12-03T07:33:29.792Z,18.80
2017-12-03T07:35:57.313Z,18.80
2017-12-03T07:38:26.537Z,18.80
2017-12-03T07:40:54.057Z,18.70
2017-12-03T07:43:21.554Z,18.80
2017-12-03T07:45:49.070Z,18.80
2017-12-03T07:48:16.588Z,18.80
2017-12-03T07:50:44.085Z,18.80
2017-12-03T07:53:11.601Z,18.80
2017-12-03T07:55:39.093Z,18.80
2017-12-03T07:58:06.608Z,18.80
2017-12-03T08:00:34.102Z,18.80
2017-12-03T08:03:01.625Z,18.80
2017-12-03T08:05:29.121Z,18.90
2017-12-03T08:07:56.613Z,18.80
2017-12-03T08:10:26.081Z,18.80
2017-12-03T08:12:53.583Z,18.80
2017-12-03T08:15:21.102Z,18.90
2017-12-03T08:17:48.598Z,18.80
2017-12-03T08:20:16.113Z,18.90
2017-12-03T08:22:44.553Z,18.90
2017-12-03T08:25:12.081Z,18.90
2017-12-03T08:27:39.606Z,18.90
2017-12-03T08:30:07.102Z,18.90
2017-12-03T08:32:34.630Z,18.90
2017-12-03T08:35:02.892Z,18.90
2017-12-03T08:37:30.405Z,18.90
2017-12-03T08:39:57.897Z,18.90
2017-12-03T08:42:25.385Z,18.90
2017-12-03T08:44:53.668Z,18.90
2017-12-03T08:47:21.933Z,18.90
2017-12-03T08:49:50.221Z,18.90
2017-12-03T08:52:17.721Z,18.90
2017-12-03T08:54:45.241Z,18.90
2017-12-03T08:57:12.733Z,18.90
2017-12-03T08:59:40.239Z,19.00
2017-12-03T09:02:08.529Z,19.00
2017-12-03T09:04:36.061Z,19.00
2017-12-03T09:07:04.378Z,19.00
2017-12-03T09:09:31.881Z,19.00
2017-12-03T09:11:59.405Z,19.10
2017-12-03T09:14:26.917Z,19.00
2017-12-03T09:16:55.209Z,19.00
2017-12-03T09:19:22.737Z,19.00
2017-12-03T09:21:50.238Z,19.00
2017-12-03T09:24:19.724Z,19.00
2017-12-03T09:26:47.222Z,19.00
2017-12-03T09:29:14.746Z,19.00
2017-12-03T09:31:42.276Z,19.10
2017-12-03T09:34:10.549Z,19.00
2017-12-03T09:36:38.838Z,19.00
2017-12-03T09:39:07.138Z,19.00
2017-12-03T09:41:34.662Z,19.00
2017-12-03T09:44:02.946Z,19.00
2017-12-03T09:46:31.243Z,19.00
2017-12-03T09:48:58.746Z,19.00
2017-12-03T09:51:26.277Z,19.00
2017-12-03T09:53:54.735Z,19.00
2017-12-03T09:56:22.263Z,19.00
2017-12-03T09:58:50.528Z,19.00
2017-12-03T10:01:18.053Z,19.00
2017-12-03T10:03:45.562Z,19.00
2017-12-03T10:06:13.853Z,19.10
2017-12-03T10:08:43.353Z,19.10
2017-12-03T10:11:10.857Z,19.10
2017-12-03T10:13:38.356Z,19.10
2017-12-03T10:16:06.648Z,19.10
2017-12-03T10:18:34.153Z,19.10
2017-12-03T10:21:01.677Z,19.00
2017-12-03T10:23:29.229Z,19.00
2017-12-03T10:25:56.734Z,19.00
2017-12-03T10:28:26.198Z,19.10
2017-12-03T10:30:53.732Z,19.10
2017-12-03T10:33:21.241Z,19.10
2017-12-03T10:35:49.690Z,19.10
2017-12-03T10:38:19.962Z,19.10
2017-12-03T10:40:48.225Z,19.10
2017-12-03T10:43:15.750Z,19.10
2017-12-03T10:45:43.273Z,19.10
2017-12-03T10:48:10.808Z,19.20
2017-12-03T10:50:39.068Z,19.10
2017-12-03T10:53:06.574Z,19.10
2017-12-03T10:55:34.105Z,19.20
2017-12-03T10:58:03.324Z,19.20
2017-12-03T11:00:32.224Z,19.20
2017-12-03T11:02:59.963Z,19.30
2017-12-03T11:05:28.913Z,19.30
2017-12-03T11:07:56.645Z,19.40
2017-12-03T11:10:25.114Z,19.40
2017-12-03T11:12:52.633Z,19.50
2017-12-03T11:15:20.903Z,19.60
2017-12-03T11:17:48.432Z,19.60
2017-12-03T11:20:15.933Z,19.60
2017-12-03T11:22:44.221Z,19.50
2017-12-03T11:25:11.717Z,19.50
2017-12-03T11:27:39.269Z,19.50
2017-12-03T11:30:06.773Z,19.50
2017-12-03T11:32:34.305Z,19.40
2017-12-03T11:35:01.838Z,19.40
2017-12-03T11:37:29.353Z,19.30
2017-12-03T11:39:57.621Z,19.30
2017-12-03T11:42:25.906Z,19.30
2017-12-03T11:44:54.177Z,19.20
2017-12-03T11:47:23.429Z,19.20
2017-12-03T11:49:50.934Z,19.20
2017-12-03T11:52:21.194Z,19.20
2017-12-03T11:54:48.701Z,19.20
2017-12-03T11:57:17.052Z,19.20
2017-12-03T11:59:44.651Z,19.10
2017-12-03T12:02:14.301Z,19.10
2017-12-03T12:04:42.840Z,19.20
2017-12-03T12:07:11.242Z,19.10
2017-12-03T12:09:38.742Z,19.10
2017-12-03T12:12:06.256Z,19.10
2017-12-03T12:14:34.705Z,19.10
2017-12-03T12:17:02.993Z,19.10
2017-12-03T12:19:31.815Z,19.10
2017-12-03T12:21:59.379Z,19.10
2017-12-03T12:24:26.900Z,19.10
2017-12-03T12:26:54.416Z,19.00
2017-12-03T12:29:22.033Z,19.10
2017-12-03T12:31:49.573Z,19.00
2017-12-03T12:34:17.078Z,19.10
2017-12-03T12:36:46.533Z,19.10
2017-12-03T12:39:14.044Z,19.00
2017-12-03T12:41:41.574Z,19.10
2017-12-03T12:44:09.069Z,19.10
2017-12-03T12:46:37.367Z,19.10
2017-12-03T12:49:05.653Z,19.10
2017-12-03T12:51:33.146Z,19.10
2017-12-03T12:54:00.660Z,19.10
2017-12-03T12:56:28.954Z,19.10
2017-12-03T12:58:58.461Z,19.10
2017-12-03T13:01:25.958Z,19.10
2017-12-03T13:03:53.478Z,19.10
2017-12-03T13:06:21.136Z,19.10
2017-12-03T13:08:49.105Z,19.10
2017-12-03T13:11:17.071Z,19.10
2017-12-03T13:13:44.762Z,19.10
2017-12-03T13:16:12.601Z,19.10
2017-12-03T13:18:41.492Z,19.00
2017-12-03T13:21:09.353Z,19.00
2017-12-03T13:23:37.320Z,19.00
2017-12-03T13:26:05.000Z,19.00
2017-12-03T13:28:32.616Z,19.00
2017-12-03T13:31:00.970Z,19.00
2017-12-03T13:33:29.506Z,19.00
2017-12-03T13:35:57.083Z,19.00
2017-12-03T13:38:24.566Z,19.00
2017-12-03T13:40:52.070Z,19.00
2017-12-03T13:43:19.585Z,19.00
2017-12-03T13:45:47.841Z,19.00
2017-12-03T13:48:15.355Z,19.00
2017-12-03T13:50:42.864Z,19.00
2017-12-03T13:53:10.367Z,19.00
2017-12-03T13:55:37.881Z,19.00
2017-12-03T13:58:05.375Z,19.00
2017-12-03T14:00:32.901Z,19.00
2017-12-03T14:03:00.388Z,19.00
2017-12-03T14:05:28.841Z,19.00
2017-12-03T14:07:57.360Z,19.00
2017-12-03T14:10:24.954Z,19.00
2017-12-03T14:12:52.989Z,19.00
2017-12-03T14:15:21.729Z,19.00
2017-12-03T14:17:50.025Z,19.00
2017-12-03T14:20:18.320Z,18.90
2017-12-03T14:22:47.214Z,18.90
2017-12-03T14:25:15.284Z,18.90
2017-12-03T14:27:43.149Z,18.90
2017-12-03T14:30:12.141Z,18.90
2017-12-03T14:32:41.133Z,18.90
2017-12-03T14:35:09.100Z,18.90
2017-12-03T14:37:37.172Z,18.90
2017-12-03T14:40:06.163Z,18.90
2017-12-03T14:42:33.973Z,18.90
2017-12-03T14:45:02.711Z,18.90
2017-12-03T14:47:30.680Z,18.90
2017-12-03T14:49:58.209Z,18.90
2017-12-03T14:52:26.500Z,19.00
2017-12-03T14:54:54.951Z,18.90
2017-12-03T14:57:23.237Z,19.00
2017-12-03T14:59:51.497Z,18.90
2017-12-03T15:02:19.017Z,18.90
2017-12-03T15:04:46.525Z,19.00
2017-12-03T15:07:14.029Z,19.00
2017-12-03T15:09:43.502Z,19.00
2017-12-03T15:12:11.029Z,19.00
2017-12-03T15:14:39.376Z,19.00
2017-12-03T15:17:08.833Z,19.00
2017-12-03T15:19:36.342Z,19.00
2017-12-03T15:22:03.862Z,19.00
2017-12-03T15:24:31.376Z,19.00
2017-12-03T15:27:00.862Z,18.90
2017-12-03T15:29:28.365Z,18.90
2017-12-03T15:31:55.877Z,18.90
2017-12-03T15:34:25.836Z,18.80
2017-12-03T15:36:53.353Z,18.80
2017-12-03T15:39:20.849Z,18.80
2017-12-03T15:41:48.366Z,18.80
2017-12-03T15:44:15.860Z,18.80
2017-12-03T15:46:43.377Z,18.80
2017-12-03T15:49:10.882Z,18.80
2017-12-03T15:51:38.397Z,18.70
2017-12-03T15:54:05.893Z,18.80
2017-12-03T15:56:33.409Z,18.70
2017-12-03T15:59:01.676Z,18.70
2017-12-03T16:01:29.197Z,18.70
2017-12-03T16:03:56.689Z,18.70
2017-12-03T16:06:24.202Z,18.70
2017-12-03T16:08:52.665Z,18.70
2017-12-03T16:11:20.945Z,18.70
2017-12-03T16:13:49.216Z,18.70
2017-12-03T16:16:17.497Z,18.70
2017-12-03T16:18:44.984Z,18.70
2017-12-03T16:21:12.497Z,18.70
2017-12-03T16:23:41.669Z,18.70
2017-12-03T16:26:09.189Z,18.70
2017-12-03T16:28:36.685Z,18.70
2017-12-03T16:31:04.201Z,18.70
2017-12-03T16:33:31.974Z,18.60
2017-12-03T16:35:59.494Z,18.70
2017-12-03T16:38:27.763Z,18.60
2017-12-03T16:40:56.045Z,18.70
2017-12-03T16:43:23.568Z,18.60
2017-12-03T16:45:51.089Z,18.60
2017-12-03T16:48:18.583Z,18.60
2017-12-03T16:50:46.105Z,18.60
2017-12-03T16:53:13.614Z,18.60
2017-12-03T16:55:41.902Z,18.60
2017-12-03T16:58:11.102Z,18.60
2017-12-03T17:00:39.360Z,18.60
2017-12-03T17:03:07.649Z,18.60
2017-12-03T17:05:35.909Z,18.60
2017-12-03T17:08:05.365Z,18.60
2017-12-03T17:10:32.861Z,18.60
2017-12-03T17:13:00.385Z,18.50
2017-12-03T17:15:27.886Z,18.60
2017-12-03T17:17:56.150Z,18.60
2017-12-03T17:20:24.438Z,18.60
2017-12-03T17:22:52.710Z,18.50
2017-12-03T17:25:20.245Z,18.50
2017-12-03T17:27:47.750Z,18.60
2017-12-03T17:30:17.204Z,18.60
2017-12-03T17:32:44.702Z,18.60
2017-12-03T17:35:12.217Z,18.60
2017-12-03T17:37:39.723Z,18.50
2017-12-03T17:40:08.169Z,18.50
2017-12-03T17:42:35.666Z,18.60
2017-12-03T17:45:03.157Z,18.60
2017-12-03T17:47:30.680Z,18.50
2017-12-03T17:49:58.178Z,18.50
2017-12-03T17:52:25.694Z,18.50
2017-12-03T17:54:53.194Z,18.50
2017-12-03T17:57:20.722Z,18.50
2017-12-03T17:59:48.217Z,18.50
2017-12-03T18:02:15.737Z,18.50
2017-12-03T18:04:43.225Z,18.50
2017-12-03T18:07:10.741Z,18.50
2017-12-03T18:09:39.201Z,18.50
2017-12-03T18:12:06.693Z,18.50
2017-12-03T18:14:34.208Z,18.50
2017-12-03T18:17:01.722Z,18.50
2017-12-03T18:19:29.244Z,18.50
2017-12-03T18:21:57.685Z,18.50
2017-12-03T18:24:25.964Z,18.50
2017-12-03T18:26:54.225Z,18.50
2017-12-03T18:29:21.746Z,18.50
2017-12-03T18:31:49.253Z,18.50
2017-12-03T18:34:18.497Z,18.50
2017-12-03T18:36:46.002Z,18.50
2017-12-03T18:39:14.282Z,18.50
2017-12-03T18:41:42.540Z,18.50
2017-12-03T18:44:10.061Z,18.50
2017-12-03T18:46:37.553Z,18.50
2017-12-03T18:49:05.073Z,18.50
2017-12-03T18:51:33.505Z,18.40
2017-12-03T18:54:01.789Z,18.50
2017-12-03T18:56:30.052Z,18.40
2017-12-03T18:58:58.333Z,18.40
2017-12-03T19:01:26.593Z,18.40
2017-12-03T19:03:54.109Z,18.40
2017-12-03T19:06:21.603Z,18.40
2017-12-03T19:08:49.908Z,18.40
2017-12-03T19:11:17.409Z,18.40
2017-12-03T19:13:44.920Z,18.40
2017-12-03T19:16:13.186Z,18.40
2017-12-03T19:18:41.465Z,18.40
2017-12-03T19:21:09.729Z,18.40
2017-12-03T19:23:38.018Z,18.40
2017-12-03T19:26:05.602Z,18.40
2017-12-03T19:28:33.096Z,18.40
2017-12-03T19:31:02.569Z,18.40
2017-12-03T19:33:30.065Z,18.40
2017-12-03T19:35:57.584Z,18.40
2017-12-03T19:38:25.073Z,18.40
2017-12-03T19:40:52.586Z,18.40
2017-12-03T19:43:21.054Z,18.40
2017-12-03T19:45:48.568Z,18.40
2017-12-03T19:48:16.064Z,18.40
2017-12-03T19:50:43.601Z,18.30
2017-12-03T19:53:11.857Z,18.40
2017-12-03T19:55:39.378Z,18.30
2017-12-03T19:58:06.873Z,18.40
2017-12-03T20:00:37.136Z,18.40
2017-12-03T20:03:04.645Z,18.40
2017-12-03T20:05:32.162Z,18.40
2017-12-03T20:07:59.658Z,18.40
2017-12-03T20:10:27.173Z,18.40
2017-12-03T20:12:54.661Z,18.40
2017-12-03T20:15:22.191Z,18.40
2017-12-03T20:17:49.689Z,18.40
2017-12-03T20:20:17.205Z,18.40
2017-12-03T20:22:44.704Z,18.40
2017-12-03T20:25:12.245Z,18.40
2017-12-03T20:27:39.740Z,18.40
2017-12-03T20:30:08.030Z,18.40
2017-12-03T20:32:35.530Z,18.40
2017-12-03T20:35:03.062Z,18.40
2017-12-03T20:37:30.565Z,18.40
2017-12-03T20:39:58.093Z,18.40
2017-12-03T20:42:25.595Z,18.40
2017-12-03T20:44:53.887Z,18.40
2017-12-03T20:47:22.352Z,18.40
2017-12-03T20:49:50.645Z,18.40
2017-12-03T20:52:18.141Z,18.40
2017-12-03T20:54:47.605Z,18.50
2017-12-03T20:57:15.097Z,18.40
2017-12-03T20:59:42.608Z,18.50
2017-12-03T21:02:10.883Z,18.40
2017-12-03T21:04:39.174Z,18.40
2017-12-03T21:07:06.669Z,18.40
2017-12-03T21:09:34.194Z,18.30
2017-12-03T21:12:01.688Z,18.40
2017-12-03T21:14:29.200Z,18.40
2017-12-03T21:16:56.696Z,18.30
2017-12-03T21:19:26.154Z,18.30
2017-12-03T21:21:53.648Z,18.30
2017-12-03T21:24:21.176Z,18.30
2017-12-03T21:26:49.574Z,18.30
2017-12-03T21:29:17.108Z,18.40
2017-12-03T21:31:44.609Z,18.40
2017-12-03T21:34:12.129Z,18.30
2017-12-03T21:36:39.622Z,18.40
2017-12-03T21:39:07.132Z,18.30
2017-12-03T21:41:34.624Z,18.40
2017-12-03T21:44:02.118Z,18.40
2017-12-03T21:46:29.637Z,18.40
2017-12-03T21:48:57.153Z,18.40
2017-12-03T21:51:25.409Z,18.40
2017-12-03T21:53:52.907Z,18.40
2017-12-03T21:56:20.421Z,18.40
2017-12-03T21:58:47.924Z,18.40
2017-12-03T22:01:15.437Z,18.40
2017-12-03T22:03:42.958Z,18.50
2017-12-03T22:06:10.449Z,18.50
2017-12-03T22:08:39.918Z,18.60
2017-12-03T22:11:07.413Z,18.60
2017-12-03T22:13:35.697Z,18.50
2017-12-03T22:16:03.953Z,18.50
2017-12-03T22:18:31.473Z,18.50
2017-12-03T22:20:58.966Z,18.50
2017-12-03T22:23:26.481Z,18.50
2017-12-03T22:25:53.973Z,18.50
2017-12-03T22:28:21.464Z,18.60
2017-12-03T22:30:49.753Z,18.60
2017-12-03T22:33:17.249Z,18.70
2017-12-03T22:35:44.774Z,18.60
2017-12-03T22:38:12.281Z,18.60
2017-12-03T22:40:39.800Z,18.60
2017-12-03T22:43:07.301Z,18.60
2017-12-03T22:45:34.822Z,18.60
2017-12-03T22:48:03.292Z,18.50
2017-12-03T22:50:30.797Z,18.60
2017-12-03T22:52:58.308Z,18.60
2017-12-03T22:55:26.757Z,18.60
2017-12-03T22:57:55.032Z,18.60
2017-12-03T23:00:33.347Z,18.60
2017-12-03T23:03:02.905Z,18.60
2017-12-03T23:05:31.347Z,18.60
2017-12-03T23:07:58.909Z,18.60
2017-12-03T23:10:26.874Z,18.70
2017-12-03T23:12:55.529Z,18.60
2017-12-03T23:15:23.893Z,18.70
2017-12-03T23:17:51.417Z,18.70
2017-12-03T23:20:19.050Z,18.70
2017-12-03T23:22:46.735Z,18.70
2017-12-03T23:25:15.298Z,18.70
2017-12-03T23:27:43.373Z,18.70
2017-12-03T23:30:10.873Z,18.70
2017-12-03T23:32:39.325Z,18.70
2017-12-03T23:35:06.841Z,18.70
2017-12-03T23:37:34.329Z,18.80
2017-12-03T23:40:03.789Z,18.70
2017-12-03T23:42:32.053Z,18.80
2017-12-03T23:45:00.337Z,18.80
2017-12-03T23:47:28.601Z,18.80
2017-12-03T23:49:56.982Z,18.80
2017-12-03T23:52:25.806Z,18.80
2017-12-03T23:54:54.696Z,18.80
2017-12-03T23:57:22.663Z,18.80
2017-12-03T23:59:50.631Z,18.90
